createdAt,value
2018-08-19T00:01:44.540Z,60.90
2018-08-19T00:04:13.414Z,60.60
2018-08-19T00:06:42.297Z,61.00
2018-08-19T00:09:14.164Z,61.20
2018-08-19T00:11:42.869Z,61.20
2018-08-19T00:14:24.853Z,62.10
2018-08-19T00:16:53.069Z,62.40
2018-08-19T00:19:20.708Z,61.70
2018-08-19T00:21:48.578Z,62.50
2018-08-19T00:24:16.372Z,62.00
2018-08-19T00:26:45.186Z,62.90
2018-08-19T00:29:13.244Z,62.70
2018-08-19T00:31:40.822Z,60.80
2018-08-19T00:34:08.585Z,61.40
2018-08-19T00:36:36.316Z,61.20
2018-08-19T00:39:07.185Z,62.00
2018-08-19T00:41:34.955Z,61.20
2018-08-19T00:44:02.665Z,60.80
2018-08-19T00:46:31.506Z,61.20
2018-08-19T00:48:59.975Z,59.90
2018-08-19T00:51:27.959Z,60.10
2018-08-19T00:53:56.077Z,60.80
2018-08-19T00:56:23.775Z,61.00
2018-08-19T00:58:51.741Z,60.90
2018-08-19T01:01:31.784Z,61.40
2018-08-19T01:03:59.575Z,60.90
2018-08-19T01:06:27.527Z,61.70
2018-08-19T01:08:56.166Z,62.10
2018-08-19T01:11:33.428Z,62.90
2018-08-19T01:14:01.552Z,63.00
2018-08-19T01:16:29.265Z,63.20
2018-08-19T01:18:59.580Z,62.40
2018-08-19T01:21:29.374Z,62.60
2018-08-19T01:23:58.677Z,61.50
2018-08-19T01:26:26.504Z,60.80
2018-08-19T01:28:55.124Z,61.20
2018-08-19T01:31:24.883Z,60.80
2018-08-19T01:33:52.681Z,61.30
2018-08-19T01:36:20.265Z,61.60
2018-08-19T01:38:48.990Z,62.10
2018-08-19T01:41:16.700Z,61.80
2018-08-19T01:43:57.093Z,61.90
2018-08-19T01:46:24.715Z,62.40
2018-08-19T01:48:52.285Z,62.50
2018-08-19T01:51:19.842Z,62.30
2018-08-19T01:53:47.420Z,62.30
2018-08-19T01:56:15.108Z,62.40
2018-08-19T01:58:45.481Z,62.10
2018-08-19T02:01:13.464Z,62.30
2018-08-19T02:03:41.072Z,62.10
2018-08-19T02:06:08.892Z,62.00
2018-08-19T02:08:36.566Z,61.60
2018-08-19T02:11:14.262Z,61.00
2018-08-19T02:13:41.997Z,60.40
2018-08-19T02:16:11.424Z,60.50
2018-08-19T02:18:39.016Z,61.20
2018-08-19T02:21:06.976Z,61.20
2018-08-19T02:23:34.605Z,61.00
2018-08-19T02:26:02.295Z,61.50
2018-08-19T02:28:29.849Z,60.40
2018-08-19T02:30:59.461Z,60.20
2018-08-19T02:33:32.437Z,60.70
2018-08-19T02:36:02.822Z,60.20
2018-08-19T02:38:30.893Z,61.60
2018-08-19T02:40:58.668Z,61.80
2018-08-19T02:43:26.376Z,62.40
2018-08-19T02:45:54.132Z,63.50
2018-08-19T02:48:40.640Z,63.80
2018-08-19T02:51:09.460Z,62.00
2018-08-19T02:53:37.164Z,62.30
2018-08-19T02:56:04.774Z,61.20
2018-08-19T02:58:32.368Z,60.80
2018-08-19T03:00:59.993Z,59.90
2018-08-19T03:03:27.549Z,59.10
2018-08-19T03:05:58.491Z,59.90
2018-08-19T03:08:26.470Z,59.80
2018-08-19T03:10:54.272Z,60.00
2018-08-19T03:13:22.019Z,60.00
2018-08-19T03:15:53.008Z,59.90
2018-08-19T03:18:20.667Z,59.90
2018-08-19T03:20:48.240Z,60.30
2018-08-19T03:23:15.920Z,60.00
2018-08-19T03:25:43.738Z,60.00
2018-08-19T03:28:11.370Z,60.80
2018-08-19T03:30:45.761Z,61.30
2018-08-19T03:33:13.314Z,61.40
2018-08-19T03:35:41.232Z,61.10
2018-08-19T03:38:12.548Z,62.20
2018-08-19T03:40:40.251Z,62.10
2018-08-19T03:43:09.549Z,62.40
2018-08-19T03:45:37.341Z,62.90
2018-08-19T03:48:06.419Z,63.50
2018-08-19T03:50:36.255Z,64.90
2018-08-19T03:53:04.187Z,64.60
2018-08-19T03:55:32.581Z,64.80
2018-08-19T03:58:04.692Z,64.00
2018-08-19T04:00:36.918Z,64.10
2018-08-19T04:03:38.183Z,63.70
2018-08-19T04:06:06.168Z,64.90
2018-08-19T04:08:39.347Z,64.90
2018-08-19T04:11:07.349Z,64.90
2018-08-19T04:13:39.781Z,64.60
2018-08-19T04:16:11.048Z,64.90
2018-08-19T04:18:40.854Z,64.60
2018-08-19T04:21:12.661Z,64.90
2018-08-19T04:23:43.091Z,64.80
2018-08-19T04:26:11.580Z,64.70
2018-08-19T04:28:40.517Z,64.00
2018-08-19T04:31:13.943Z,63.80
2018-08-19T04:33:43.283Z,64.80
2018-08-19T04:36:12.028Z,64.40
2018-08-19T04:38:39.962Z,63.90
2018-08-19T04:41:07.924Z,63.30
2018-08-19T04:43:35.878Z,63.10
2018-08-19T04:46:04.286Z,62.90
2018-08-19T04:48:31.945Z,62.30
2018-08-19T04:50:59.580Z,63.80
2018-08-19T04:53:27.275Z,62.90
2018-08-19T04:55:54.979Z,62.10
2018-08-19T04:58:22.926Z,61.50
2018-08-19T05:00:50.634Z,61.50
2018-08-19T05:03:18.476Z,61.10
2018-08-19T05:05:46.214Z,60.90
2018-08-19T05:08:14.074Z,60.80
2018-08-19T05:10:42.498Z,60.70
2018-08-19T05:13:10.971Z,60.70
2018-08-19T05:15:39.879Z,60.20
2018-08-19T05:18:07.763Z,60.60
2018-08-19T05:20:35.429Z,60.90
2018-08-19T05:23:03.087Z,61.10
2018-08-19T05:25:30.710Z,59.90
2018-08-19T05:28:02.831Z,59.80
2018-08-19T05:30:31.772Z,59.80
2018-08-19T05:33:00.210Z,61.50
2018-08-19T05:35:28.846Z,61.10
2018-08-19T05:37:56.794Z,60.00
2018-08-19T05:40:24.516Z,59.90
2018-08-19T05:42:52.179Z,59.70
2018-08-19T05:45:19.904Z,58.80
2018-08-19T05:47:59.098Z,58.60
2018-08-19T05:50:26.834Z,59.70
2018-08-19T05:52:54.621Z,60.80
2018-08-19T05:55:22.199Z,60.70
2018-08-19T05:57:49.870Z,60.50
2018-08-19T06:00:22.322Z,60.40
2018-08-19T06:02:51.065Z,60.00
2018-08-19T06:05:18.777Z,59.30
2018-08-19T06:07:50.501Z,59.00
2018-08-19T06:10:18.544Z,58.60
2018-08-19T06:12:46.190Z,59.20
2018-08-19T06:15:13.808Z,59.00
2018-08-19T06:17:41.437Z,59.50
2018-08-19T06:20:09.257Z,59.30
2018-08-19T06:22:39.114Z,57.90
2018-08-19T06:25:06.864Z,55.60
2018-08-19T06:27:43.702Z,52.10
2018-08-19T06:30:11.901Z,49.50
2018-08-19T06:32:39.639Z,46.30
2018-08-19T06:35:07.723Z,43.70
2018-08-19T06:37:35.337Z,42.20
2018-08-19T06:40:03.017Z,41.50
2018-08-19T06:42:30.605Z,41.50
2018-08-19T06:44:58.260Z,40.30
2018-08-19T06:47:25.954Z,40.40
2018-08-19T06:49:55.418Z,40.10
2018-08-19T06:52:23.955Z,40.70
2018-08-19T06:54:51.880Z,41.50
2018-08-19T06:57:19.766Z,43.30
2018-08-19T06:59:48.110Z,45.00
2018-08-19T07:02:15.784Z,45.80
2018-08-19T07:04:44.888Z,46.10
2018-08-19T07:07:13.805Z,47.30
2018-08-19T07:09:41.710Z,48.20
2018-08-19T07:12:14.710Z,50.20
2018-08-19T07:14:43.819Z,51.20
2018-08-19T07:17:11.620Z,52.40
2018-08-19T07:19:39.547Z,52.90
2018-08-19T07:22:08.126Z,50.40
2018-08-19T07:24:37.630Z,51.20
2018-08-19T07:27:07.532Z,51.00
2018-08-19T07:29:36.300Z,52.00
2018-08-19T07:32:04.426Z,52.20
2018-08-19T07:34:32.127Z,50.50
2018-08-19T07:36:59.954Z,49.90
2018-08-19T07:39:27.881Z,52.10
2018-08-19T07:41:55.748Z,50.20
2018-08-19T07:44:23.676Z,49.80
2018-08-19T07:46:51.835Z,49.30
2018-08-19T07:49:19.629Z,50.40
2018-08-19T07:51:47.338Z,50.50
2018-08-19T07:54:15.249Z,50.70
2018-08-19T07:56:43.116Z,48.40
2018-08-19T07:59:13.448Z,48.40
2018-08-19T08:01:41.392Z,48.60
2018-08-19T08:04:09.326Z,48.60
2018-08-19T08:06:37.412Z,47.90
2018-08-19T08:09:07.550Z,47.00
2018-08-19T08:11:35.735Z,46.90
2018-08-19T08:14:03.720Z,47.70
2018-08-19T08:16:36.816Z,45.40
2018-08-19T08:19:04.786Z,46.30
2018-08-19T08:21:32.590Z,44.40
2018-08-19T08:24:00.216Z,42.90
2018-08-19T08:26:28.024Z,42.00
2018-08-19T08:29:02.203Z,43.50
2018-08-19T08:31:29.921Z,42.30
2018-08-19T08:33:57.670Z,41.80
2018-08-19T08:36:25.332Z,41.40
2018-08-19T08:38:53.104Z,41.60
2018-08-19T08:41:20.862Z,40.50
2018-08-19T08:43:48.562Z,40.70
2018-08-19T08:46:16.224Z,40.70
2018-08-19T08:48:44.560Z,41.90
2018-08-19T08:51:12.249Z,42.60
2018-08-19T08:53:45.487Z,39.70
2018-08-19T08:56:14.160Z,41.10
2018-08-19T08:58:41.897Z,40.70
2018-08-19T09:01:09.676Z,40.30
2018-08-19T09:03:37.386Z,39.50
2018-08-19T09:06:18.000Z,39.00
2018-08-19T09:08:45.739Z,38.50
2018-08-19T09:11:13.560Z,38.30
2018-08-19T09:13:41.395Z,38.50
2018-08-19T09:16:09.661Z,38.50
2018-08-19T09:18:37.250Z,38.70
2018-08-19T09:21:04.953Z,38.50
2018-08-19T09:23:34.608Z,37.90
2018-08-19T09:26:02.247Z,36.30
2018-08-19T09:28:29.869Z,35.70
2018-08-19T09:30:57.458Z,34.50
2018-08-19T09:33:25.138Z,33.90
2018-08-19T09:35:52.804Z,34.00
2018-08-19T09:38:21.657Z,34.50
2018-08-19T09:40:49.670Z,35.90
2018-08-19T09:43:17.482Z,36.30
2018-08-19T09:45:45.710Z,34.90
2018-08-19T09:48:14.154Z,35.00
2018-08-19T09:50:42.585Z,33.80
2018-08-19T09:53:10.336Z,33.90
2018-08-19T09:56:11.062Z,32.10
2018-08-19T09:58:39.333Z,32.70
2018-08-19T10:01:12.943Z,33.60
2018-08-19T10:03:40.682Z,33.20
2018-08-19T10:06:08.467Z,31.50
2018-08-19T10:08:36.316Z,31.90
2018-08-19T10:11:04.140Z,31.10
2018-08-19T10:13:31.894Z,32.40
2018-08-19T10:15:59.720Z,31.40
2018-08-19T10:18:27.412Z,31.40
2018-08-19T10:20:55.286Z,31.70
2018-08-19T10:23:23.281Z,30.30
2018-08-19T10:25:51.390Z,29.40
2018-08-19T10:28:19.204Z,30.90
2018-08-19T10:30:52.730Z,30.50
2018-08-19T10:33:20.768Z,29.70
2018-08-19T10:35:48.680Z,28.50
2018-08-19T10:38:16.627Z,29.50
2018-08-19T10:40:46.842Z,29.00
2018-08-19T10:43:14.576Z,28.70
2018-08-19T10:45:42.874Z,28.90
2018-08-19T10:48:12.802Z,27.80
2018-08-19T10:50:40.747Z,28.50
2018-08-19T10:53:15.887Z,28.70
2018-08-19T10:55:44.557Z,27.80
2018-08-19T10:58:12.382Z,26.80
2018-08-19T11:00:40.415Z,27.50
2018-08-19T11:03:13.878Z,28.30
2018-08-19T11:05:42.881Z,27.60
2018-08-19T11:08:11.372Z,26.90
2018-08-19T11:10:39.248Z,27.60
2018-08-19T11:13:07.609Z,27.60
2018-08-19T11:15:45.831Z,27.20
2018-08-19T11:18:35.944Z,26.90
2018-08-19T11:21:06.770Z,27.20
2018-08-19T11:23:38.635Z,27.10
2018-08-19T11:26:06.928Z,26.70
2018-08-19T11:28:44.419Z,26.30
2018-08-19T11:31:22.546Z,25.50
2018-08-19T11:33:51.342Z,26.10
2018-08-19T11:36:19.631Z,26.10
2018-08-19T11:38:49.010Z,26.40
2018-08-19T11:41:17.126Z,25.80
2018-08-19T11:43:46.251Z,25.80
2018-08-19T11:46:14.096Z,25.90
2018-08-19T11:48:42.228Z,25.40
2018-08-19T11:51:10.151Z,26.00
2018-08-19T11:53:37.909Z,25.90
2018-08-19T11:56:06.027Z,27.00
2018-08-19T11:58:50.303Z,26.90
2018-08-19T12:01:19.304Z,27.10
2018-08-19T12:03:57.952Z,26.60
2018-08-19T12:06:27.962Z,26.40
2018-08-19T12:08:57.677Z,26.70
2018-08-19T12:11:28.268Z,26.60
2018-08-19T12:13:56.196Z,25.60
2018-08-19T12:16:27.621Z,25.90
2018-08-19T12:18:59.577Z,25.60
2018-08-19T12:21:28.230Z,25.90
2018-08-19T12:24:12.883Z,25.10
2018-08-19T12:26:42.155Z,25.80
2018-08-19T12:29:09.885Z,26.10
2018-08-19T12:31:37.510Z,25.90
2018-08-19T12:34:05.342Z,26.20
2018-08-19T12:36:33.800Z,26.00
2018-08-19T12:39:01.949Z,25.70
2018-08-19T12:41:30.714Z,26.40
2018-08-19T12:44:00.244Z,26.60
2018-08-19T12:46:27.921Z,26.30
2018-08-19T12:48:55.694Z,26.50
2018-08-19T12:51:23.417Z,26.40
2018-08-19T12:53:51.005Z,26.60
2018-08-19T12:56:20.592Z,26.20
2018-08-19T12:58:48.148Z,26.80
2018-08-19T13:01:15.733Z,26.80
2018-08-19T13:03:43.387Z,26.70
2018-08-19T13:06:10.908Z,27.20
2018-08-19T13:08:38.628Z,27.10
2018-08-19T13:11:07.193Z,27.30
2018-08-19T13:13:34.906Z,27.10
2018-08-19T13:16:02.600Z,26.40
2018-08-19T13:18:35.961Z,26.60
2018-08-19T13:21:09.337Z,25.60
2018-08-19T13:23:37.773Z,25.50
2018-08-19T13:26:05.514Z,25.50
2018-08-19T13:28:35.657Z,25.50
2018-08-19T13:31:03.578Z,25.20
2018-08-19T13:33:31.905Z,25.50
2018-08-19T13:35:59.553Z,26.00
2018-08-19T13:38:35.301Z,25.70
2018-08-19T13:41:04.497Z,26.10
2018-08-19T13:43:32.773Z,26.40
2018-08-19T13:46:00.719Z,25.70
2018-08-19T13:48:28.441Z,25.50
2018-08-19T13:50:56.410Z,25.80
2018-08-19T13:53:24.124Z,27.10
2018-08-19T13:55:51.812Z,26.90
2018-08-19T13:58:22.079Z,27.20
2018-08-19T14:00:50.052Z,27.10
2018-08-19T14:03:17.738Z,27.50
2018-08-19T14:05:45.433Z,28.00
2018-08-19T14:08:13.063Z,27.70
2018-08-19T14:10:40.895Z,28.20
2018-08-19T14:13:08.701Z,28.30
2018-08-19T14:15:36.248Z,27.70
2018-08-19T14:18:04.519Z,27.20
2018-08-19T14:20:32.194Z,27.30
2018-08-19T14:22:59.952Z,26.90
2018-08-19T14:25:33.852Z,27.30
2018-08-19T14:28:01.684Z,28.00
2018-08-19T14:30:29.721Z,29.10
2018-08-19T14:32:57.573Z,29.10
2018-08-19T14:35:25.284Z,28.90
2018-08-19T14:37:53.022Z,29.80
2018-08-19T14:40:21.162Z,29.00
2018-08-19T14:42:48.745Z,28.60
2018-08-19T14:45:16.483Z,28.40
2018-08-19T14:47:44.259Z,28.20
2018-08-19T14:50:14.595Z,28.50
2018-08-19T14:52:42.248Z,27.90
2018-08-19T14:55:10.005Z,28.90
2018-08-19T14:57:37.856Z,28.70
2018-08-19T15:00:07.796Z,28.70
2018-08-19T15:02:35.733Z,28.80
2018-08-19T15:05:03.797Z,28.80
2018-08-19T15:07:31.438Z,28.70
2018-08-19T15:09:59.271Z,28.40
2018-08-19T15:12:27.106Z,28.50
2018-08-19T15:14:58.147Z,28.10
2018-08-19T15:17:26.015Z,28.10
2018-08-19T15:19:54.208Z,28.00
2018-08-19T15:22:21.960Z,28.30
2018-08-19T15:24:50.097Z,28.20
2018-08-19T15:27:17.811Z,28.30
2018-08-19T15:29:47.493Z,28.60
2018-08-19T15:32:15.975Z,28.60
2018-08-19T15:34:43.927Z,28.30
2018-08-19T15:37:11.500Z,28.20
2018-08-19T15:39:39.139Z,28.80
2018-08-19T15:42:06.869Z,28.40
2018-08-19T15:44:34.467Z,28.30
2018-08-19T15:47:02.177Z,28.50
2018-08-19T15:49:29.805Z,28.40
2018-08-19T15:51:57.438Z,29.00
2018-08-19T15:54:25.124Z,28.40
2018-08-19T15:56:52.919Z,28.50
2018-08-19T15:59:21.096Z,28.90
2018-08-19T16:01:48.955Z,28.60
2018-08-19T16:04:21.171Z,28.60
2018-08-19T16:06:51.591Z,28.60
2018-08-19T16:09:21.727Z,28.50
2018-08-19T16:11:50.047Z,28.70
2018-08-19T16:14:27.775Z,28.80
2018-08-19T16:16:56.144Z,29.00
2018-08-19T16:19:23.865Z,29.30
2018-08-19T16:21:53.225Z,28.90
2018-08-19T16:24:20.918Z,28.70
2018-08-19T16:26:48.874Z,29.00
2018-08-19T16:29:16.515Z,29.00
2018-08-19T16:31:44.513Z,28.60
2018-08-19T16:34:12.297Z,29.40
2018-08-19T16:36:40.025Z,29.00
2018-08-19T16:39:09.287Z,28.90
2018-08-19T16:41:36.897Z,28.80
2018-08-19T16:44:04.590Z,28.80
2018-08-19T16:46:32.159Z,29.90
2018-08-19T16:48:59.840Z,29.30
2018-08-19T16:51:27.488Z,29.30
2018-08-19T16:53:55.130Z,29.70
2018-08-19T16:56:22.939Z,29.30
2018-08-19T16:58:50.557Z,29.00
2018-08-19T17:01:18.217Z,29.90
2018-08-19T17:03:45.896Z,29.90
2018-08-19T17:06:14.348Z,29.80
2018-08-19T17:08:42.776Z,29.80
2018-08-19T17:11:11.875Z,29.70
2018-08-19T17:13:39.936Z,29.70
2018-08-19T17:16:07.662Z,30.00
2018-08-19T17:18:35.500Z,29.60
2018-08-19T17:21:03.448Z,29.60
2018-08-19T17:23:32.026Z,30.20
2018-08-19T17:26:10.967Z,30.30
2018-08-19T17:28:38.625Z,30.00
2018-08-19T17:31:06.281Z,30.40
2018-08-19T17:33:33.939Z,31.50
2018-08-19T17:36:01.592Z,30.50
2018-08-19T17:38:31.092Z,31.20
2018-08-19T17:40:59.164Z,30.80
2018-08-19T17:43:32.440Z,31.10
2018-08-19T17:46:04.974Z,31.90
2018-08-19T17:48:33.697Z,32.50
2018-08-19T17:51:01.457Z,32.10
2018-08-19T17:53:29.408Z,32.90
2018-08-19T17:55:57.210Z,32.10
2018-08-19T17:58:25.708Z,32.70
2018-08-19T18:00:53.306Z,33.10
2018-08-19T18:03:21.037Z,33.20
2018-08-19T18:05:48.573Z,33.80
2018-08-19T18:08:16.363Z,33.40
2018-08-19T18:10:51.431Z,33.90
2018-08-19T18:13:19.114Z,34.20
2018-08-19T18:15:46.782Z,34.20
2018-08-19T18:18:14.467Z,34.60
2018-08-19T18:20:42.293Z,34.90
2018-08-19T18:23:16.234Z,34.80
2018-08-19T18:25:47.955Z,34.90
2018-08-19T18:28:21.433Z,34.90
2018-08-19T18:30:53.779Z,35.10
2018-08-19T18:33:22.086Z,36.30
2018-08-19T18:35:49.941Z,37.00
2018-08-19T18:38:24.577Z,36.70
2018-08-19T18:40:52.160Z,37.50
2018-08-19T18:43:19.887Z,37.40
2018-08-19T18:45:48.660Z,38.10
2018-08-19T18:48:18.172Z,38.60
2018-08-19T18:50:46.036Z,39.90
2018-08-19T18:53:13.774Z,40.00
2018-08-19T18:55:41.496Z,40.90
2018-08-19T18:58:09.299Z,41.40
2018-08-19T19:00:43.551Z,41.20
2018-08-19T19:03:11.330Z,42.40
2018-08-19T19:05:40.551Z,44.10
2018-08-19T19:08:13.303Z,44.00
2018-08-19T19:10:50.161Z,44.60
2018-08-19T19:13:20.795Z,45.60
2018-08-19T19:15:48.900Z,45.40
2018-08-19T19:18:17.389Z,46.10
2018-08-19T19:20:50.852Z,46.20
2018-08-19T19:23:20.334Z,46.60
2018-08-19T19:25:48.508Z,46.50
2018-08-19T19:28:16.166Z,46.40
2018-08-19T19:30:43.752Z,46.30
2018-08-19T19:33:12.079Z,47.00
2018-08-19T19:35:39.802Z,47.10
2018-08-19T19:38:08.287Z,47.50
2018-08-19T19:40:36.545Z,47.80
2018-08-19T19:43:04.282Z,47.70
2018-08-19T19:45:41.506Z,47.50
2018-08-19T19:48:10.114Z,48.40
2018-08-19T19:50:38.093Z,49.00
2018-08-19T19:53:08.379Z,49.50
2018-08-19T19:55:36.113Z,49.70
2018-08-19T19:58:04.004Z,49.60
2018-08-19T20:00:54.240Z,50.00
2018-08-19T20:03:22.743Z,50.30
2018-08-19T20:05:50.439Z,50.00
2018-08-19T20:08:22.733Z,50.50
2018-08-19T20:10:50.499Z,50.40
2018-08-19T20:13:18.157Z,50.70
2018-08-19T20:15:45.820Z,49.70
2018-08-19T20:18:13.428Z,50.40
2018-08-19T20:20:41.099Z,50.10
2018-08-19T20:23:14.267Z,50.90
2018-08-19T20:25:42.887Z,51.90
2018-08-19T20:28:13.044Z,51.80
2018-08-19T20:30:40.880Z,51.70
2018-08-19T20:33:16.272Z,51.60
2018-08-19T20:35:44.730Z,52.10
2018-08-19T20:38:12.671Z,51.60
2018-08-19T20:40:40.628Z,52.10
2018-08-19T20:43:13.885Z,51.70
2018-08-19T20:45:41.595Z,51.50
2018-08-19T20:48:09.405Z,50.90
2018-08-19T20:50:41.792Z,50.30
2018-08-19T20:53:09.476Z,51.60
2018-08-19T20:55:38.096Z,51.40
2018-08-19T20:58:05.949Z,51.20
2018-08-19T21:00:33.768Z,51.30
2018-08-19T21:03:01.466Z,51.50
2018-08-19T21:05:29.525Z,52.00
2018-08-19T21:08:10.213Z,51.50
2018-08-19T21:10:40.294Z,51.40
2018-08-19T21:13:09.029Z,51.80
2018-08-19T21:15:38.666Z,51.70
2018-08-19T21:18:07.176Z,52.10
2018-08-19T21:20:35.188Z,52.60
2018-08-19T21:23:03.869Z,52.80
2018-08-19T21:25:32.408Z,52.50
2018-08-19T21:28:00.268Z,53.30
2018-08-19T21:30:28.048Z,53.30
2018-08-19T21:32:56.516Z,53.60
2018-08-19T21:35:24.232Z,53.30
2018-08-19T21:37:51.898Z,54.00
2018-08-19T21:40:25.981Z,53.80
2018-08-19T21:42:55.404Z,54.40
2018-08-19T21:45:23.228Z,55.20
2018-08-19T21:47:51.093Z,54.30
2018-08-19T21:50:18.793Z,54.90
2018-08-19T21:53:03.187Z,55.40
2018-08-19T21:55:32.927Z,55.70
2018-08-19T21:58:01.322Z,56.50
2018-08-19T22:00:31.380Z,56.40
2018-08-19T22:03:05.494Z,55.80
2018-08-19T22:05:34.131Z,56.00
2018-08-19T22:08:02.903Z,55.40
2018-08-19T22:10:31.236Z,56.00
2018-08-19T22:12:59.023Z,56.40
2018-08-19T22:15:42.719Z,56.90
2018-08-19T22:18:12.829Z,56.80
2018-08-19T22:20:50.661Z,57.40
2018-08-19T22:23:18.297Z,57.10
2018-08-19T22:25:46.316Z,56.70
2018-08-19T22:28:14.550Z,56.70
2018-08-19T22:30:42.172Z,56.60
2018-08-19T22:33:10.618Z,56.60
2018-08-19T22:35:38.311Z,57.10
2018-08-19T22:38:10.509Z,57.20
2018-08-19T22:40:38.212Z,57.60
2018-08-19T22:43:07.067Z,57.40
2018-08-19T22:45:34.854Z,57.80
2018-08-19T22:48:02.628Z,58.40
2018-08-19T22:50:30.833Z,58.50
2018-08-19T22:52:58.508Z,58.70
2018-08-19T22:55:26.267Z,58.50
2018-08-19T22:57:58.848Z,59.10
2018-08-19T23:00:27.008Z,59.00
2018-08-19T23:02:54.952Z,58.80
2018-08-19T23:05:22.860Z,59.40
2018-08-19T23:07:50.573Z,59.50
2018-08-19T23:10:18.265Z,59.20
2018-08-19T23:12:45.885Z,59.20
2018-08-19T23:15:24.772Z,58.80
2018-08-19T23:17:52.488Z,59.40
2018-08-19T23:20:20.234Z,60.00
2018-08-19T23:22:48.010Z,60.50
2018-08-19T23:25:15.844Z,60.80
2018-08-19T23:27:43.625Z,60.80
2018-08-19T23:30:11.577Z,60.70
2018-08-19T23:32:39.337Z,60.60
2018-08-19T23:35:06.988Z,60.70
2018-08-19T23:37:34.652Z,61.40
2018-08-19T23:40:02.296Z,61.80
2018-08-19T23:42:30.015Z,61.80
2018-08-19T23:44:57.686Z,61.70
2018-08-19T23:47:25.313Z,62.00
2018-08-19T23:49:53.418Z,61.80
2018-08-19T23:52:21.131Z,61.70
2018-08-19T23:54:48.763Z,61.80
2018-08-19T23:57:16.541Z,61.80
2018-08-19T23:59:45.605Z,61.70
